Archival Weather

Heathrow

London, United Kingdom (EGLL)

Report from: Thursday, September 21, 2023 10:20 AM BST
Current time: Saturday, March 2, 2024 10:18 AM GMT

Current weather – Weather history – Daily summaries
Weather forecast

Temperature15.0°C (59.0°F)
Dew point10.0°C (50.0°F)
Winds 6 kts (3.1 m/s, 6.9 mph) Vrb
Winds variableWinds variable from Southwest (230°) to West-Northwest (290°)
Visibility6.2 mi. (10 km)
Clouds Sky clear
Altimeter29.41 in.Hg (996 mB)
Relative humidity72 %
Density altitude761 ft. (232 m)
Remarks Fully automated report
No clouds detected
Flight conditions Visual Meteorological Conditions
Raw dataEGLL 210920Z AUTO 26006KT 230V290 9999 NCD 15/10 Q0996
An error has occurred. This application may no longer respond until reloaded. Reload 🗙